• Join FlightAware (Why Join?)
  • Login
  • US Flag 
07:53PM EST


 

Airport Tracker/Info


-or-


 

Live Flight TrackerFlight Track Log ✈ N26TF ✈ 08-Jun-2013 ✈ KLNS - KBWI

Flight Track Log - Related Links

Times and Time Zones

All times are in EDT time to prevent confusion due to time zone crossing. See the N26TF flight status page for this flight to view local times or setup timezone preferences in your user account.

Time Position Orientation Groundspeed Altitude Reporting Facility
EDT Latitude Longitude Course Direction KTS MPH feet Rate Location/Type
04:36PM 39.9833 -76.2833 183° South 165 190 6,000  Level Potomac TRACON
04:37PM 39.9333 -76.3167 207° Southwest 181 208 6,000  Level Potomac TRACON
04:38PM 39.8833 -76.3333 194° South 186 214 6,000  Level Potomac TRACON
04:39PM 39.8750 -76.2833 180° South  Level FlightAware Approximate
04:40PM 39.8276 -76.2833 180° South  Level FlightAware Approximate
04:40PM 39.8333 -76.3667 207° Southwest 180 207 6,000  Level Potomac TRACON
04:41PM 39.7803 -76.2849 183° South  Level FlightAware Approximate
04:41PM 39.7833 -76.3833 194° South 180 207 6,000  Level Potomac TRACON
04:42PM 39.7329 -76.2885 183° South  Level FlightAware Approximate
04:42PM 39.7333 -76.4000 194° South 183 211 6,000  Level Potomac TRACON
04:43PM 39.6833 -76.4333 207° Southwest 188 216 5,700 -540 Descending Potomac TRACON
04:44PM 39.6333 -76.4500 194° South 184 212 5,000 -720 Descending Potomac TRACON
04:44PM 39.6000 -76.4667 201° Southwest 183 211 4,400 -600 Descending Potomac TRACON
04:45PM 39.5500 -76.4833 194° South 181 208 3,900 -300 Descending Potomac TRACON
04:46PM 39.5000 -76.4833 180° South 173 199 3,900  Level Potomac TRACON
04:48PM 39.4500 -76.4833 180° South 176 203 3,900  Level Potomac TRACON
04:49PM 39.4000 -76.5000 194° South 177 204 3,900  Level Potomac TRACON
04:50PM 39.3500 -76.5000 180° South 177 204 3,900 -240 Level Potomac TRACON
04:51PM 39.3000 -76.4833 166° South 180 207 3,500 -600 Descending Potomac TRACON
04:52PM 39.2500 -76.4667 166° South 175 201 2,800 -300 Descending Potomac TRACON
04:53PM 39.2167 -76.5000 218° Southwest 163 188 3,000 180 Climbing Potomac TRACON